Time;durP1;ratioP1;P1;durP2;ratioP2;P2;SDS_P1;SDS_P2;PMS_P1;PMS_P2;Temp;Humidity;BMP_temperature;BMP_pressure;BME280_temperature;BME280_humidity;BME280_pressure;Samples;Min_cycle;Max_cycle;Signal;HPM_P1;HPM_P2
2022/05/03 00:02:52;;;;;;;3.97;2.10;;;;;;;8.04;66.91;99957.53;5053984;28;20396;-64
2022/05/03 00:05:41;;;;;;;4.78;2.20;;;;;;;7.99;67.44;99954.53;5050014;28;20496;-62
2022/05/03 00:08:19;;;;;;;2.50;1.70;;;;;;;7.98;67.27;99958.19;5055552;28;20068;-61
2022/05/03 00:10:53;;;;;;;3.03;1.97;;;;;;;7.92;67.53;99956.19;5056094;28;20116;-62
2022/05/03 00:13:25;;;;;;;4.43;2.00;;;;;;;7.79;67.83;99935.47;5054752;28;20329;-63
2022/05/03 00:15:51;;;;;;;2.23;1.90;;;;;;;7.79;68.40;99948.72;5054485;28;20052;-60
2022/05/03 00:18:17;;;;;;;2.07;1.87;;;;;;;7.72;67.99;99956.50;5054700;28;20028;-61
2022/05/03 00:20:46;;;;;;;4.10;1.80;;;;;;;7.69;68.45;99961.31;5053897;28;20037;-62
2022/05/03 00:23:11;;;;;;;;;;;;;;;7.74;68.18;99975.72;5054478;28;20033;-62
2022/05/03 00:25:38;;;;;;;2.70;2.23;;;;;;;7.66;68.43;99943.09;5054170;28;20326;-61
2022/05/03 00:28:04;;;;;;;5.03;2.20;;;;;;;7.72;69.00;99960.97;5053702;28;20040;-61
2022/05/03 00:30:34;;;;;;;5.43;4.23;;;;;;;7.72;68.24;99959.16;5052916;28;20122;-62
2022/05/03 00:33:02;;;;;;;4.63;2.23;;;;;;;7.81;69.03;99969.78;5054346;28;20041;-63
2022/05/03 00:35:28;;;;;;;7.23;2.77;;;;;;;7.80;68.73;99960.16;5054363;28;20124;-61
2022/05/03 00:37:53;;;;;;;3.47;1.90;;;;;;;7.77;69.24;99948.88;5053599;28;20132;-64
2022/05/03 00:40:21;;;;;;;3.63;1.90;;;;;;;7.69;70.30;99943.59;5054030;28;20036;-62
2022/05/03 00:42:54;;;;;;;6.50;2.10;;;;;;;7.61;69.56;99962.13;5054258;28;20068;-64
2022/05/03 00:45:58;;;;;;;3.10;2.47;;;;;;;7.53;70.57;99964.78;5052784;28;20392;-61
2022/05/03 00:49:00;;;;;;;2.27;1.97;;;;;;;7.48;70.28;99951.16;5049830;28;20048;-61
2022/05/03 00:51:36;;;;;;;2.70;2.23;;;;;;;7.36;71.42;99934.75;5042194;28;20037;-63
2022/05/03 00:54:20;;;;;;;3.77;2.03;;;;;;;7.29;70.94;99924.97;5053531;28;20033;-60
2022/05/03 00:57:27;;;;;;;4.40;2.40;;;;;;;7.26;71.56;99934.06;5053552;28;20120;-62
2022/05/03 01:00:01;;;;;;;8.30;2.37;;;;;;;7.36;71.17;99949.81;5031117;28;20049;-62
2022/05/03 01:03:12;;;;;;;3.53;2.30;;;;;;;7.42;71.47;99951.81;5050488;28;20048;-60
2022/05/03 01:05:52;;;;;;;5.00;2.23;;;;;;;6.62;70.47;99831.44;5045678;28;20057;-62
2022/05/03 01:08:33;;;;;;;7.83;2.57;;;;;;;7.36;70.85;99940.06;5053204;28;20123;-62
2022/05/03 01:11:20;;;;;;;5.80;2.70;;;;;;;7.46;71.06;99953.16;5053053;28;20033;-61
2022/05/03 01:13:53;;;;;;;3.90;2.73;;;;;;;7.42;70.82;99947.34;5053491;28;20032;-61
2022/05/03 01:16:37;;;;;;;4.07;2.20;;;;;;;7.41;70.87;99953.63;5053215;28;20037;-63
2022/05/03 01:19:27;;;;;;;5.67;2.00;;;;;;;7.40;70.56;99948.50;5052963;28;20041;-63
2022/05/03 01:22:06;;;;;;;4.17;2.53;;;;;;;7.39;70.99;99942.38;5052964;28;20036;-62
2022/05/03 01:25:03;;;;;;;4.67;2.30;;;;;;;7.36;71.33;99948.00;5052846;28;20032;-62
2022/05/03 01:28:04;;;;;;;5.80;2.87;;;;;;;7.38;70.76;99961.06;5052650;28;20370;-62
2022/05/03 01:30:36;;;;;;;5.83;2.17;;;;;;;7.14;69.64;99917.63;5052743;28;20044;-63
2022/05/03 01:33:08;;;;;;;3.53;2.30;;;;;;;7.24;69.10;99938.72;5051311;28;20500;-60
2022/05/03 01:35:46;;;;;;;7.57;3.03;;;;;;;7.32;68.53;99948.50;5052933;28;20039;-62
2022/05/03 01:38:54;;;;;;;3.70;2.37;;;;;;;7.27;68.83;99945.50;5052976;28;20044;-61
2022/05/03 01:41:53;;;;;;;4.45;2.00;;;;;;;7.18;68.63;99954.38;5052664;28;20071;-63
2022/05/03 01:44:39;;;;;;;5.60;2.27;;;;;;;7.02;69.58;99949.88;5052535;28;20500;-61
2022/05/03 01:47:18;;;;;;;3.77;2.27;;;;;;;6.96;68.60;99946.06;5052805;28;20032;-65
2022/05/03 01:50:20;;;;;;;4.80;2.30;;;;;;;6.97;68.95;99947.72;5052448;28;20048;-61
2022/05/03 01:53:02;;;;;;;3.23;2.37;;;;;;;6.90;68.58;99945.84;5054820;28;20048;-63
2022/05/03 01:55:46;;;;;;;4.10;2.30;;;;;;;6.85;67.64;99959.53;5055544;28;20127;-61
2022/05/03 01:58:49;;;;;;;4.67;1.83;;;;;;;6.80;66.83;99953.91;5060706;28;20040;-61
2022/05/03 02:01:27;;;;;;;6.73;2.20;;;;;;;6.57;66.89;99942.19;5064916;28;20041;-60
2022/05/03 02:04:09;;;;;;;7.73;2.33;;;;;;;6.57;66.49;99960.72;5062847;28;20044;-59
2022/05/03 02:06:55;;;;;;;2.63;2.33;;;;;;;6.52;66.87;99964.66;5064294;28;20133;-59
2022/05/03 02:09:45;;;;;;;5.07;2.70;;;;;;;6.47;67.18;99961.66;5056845;28;20029;-60
2022/05/03 02:12:15;;;;;;;5.57;2.20;;;;;;;6.34;66.54;99955.94;5044134;28;20034;-61
2022/05/03 02:14:51;;;;;;;3.60;1.80;;;;;;;6.34;67.42;99958.56;5044887;28;20089;-60
2022/05/03 02:17:29;;;;;;;5.20;2.47;;;;;;;6.21;67.16;99961.66;5052843;28;20462;-62
2022/05/03 02:20:04;;;;;;;6.55;2.88;;;;;;;6.23;67.29;99969.41;5057942;28;20132;-60
2022/05/03 02:22:59;;;;;;;7.60;3.27;;;;;;;6.18;67.63;99969.06;5058245;28;20063;-61
2022/05/03 02:25:41;;;;;;;7.77;2.30;;;;;;;6.16;68.34;99961.28;5053996;28;20067;-61
2022/05/03 02:28:25;;;;;;;6.03;2.53;;;;;;;6.15;67.39;99978.13;5052007;28;20091;-61
2022/05/03 02:30:54;;;;;;;2.53;1.80;;;;;;;6.14;67.33;99967.72;5051845;28;20057;-64
2022/05/03 02:33:55;;;;;;;7.00;2.57;;;;;;;6.13;67.93;99966.88;5063893;28;20377;-61
2022/05/03 02:36:24;;;;;;;8.27;2.20;;;;;;;6.03;68.31;99963.47;5031805;28;20037;-61
2022/05/03 02:39:03;;;;;;;4.88;2.25;;;;;;;5.93;68.44;99951.34;5031979;28;20264;-62
2022/05/03 02:41:36;;;;;;;7.57;4.30;;;;;;;5.81;69.27;99948.06;5032397;28;20041;-63
2022/05/03 02:44:05;;;;;;;4.10;2.80;;;;;;;5.83;69.96;99956.69;5032071;28;20037;-61
2022/05/03 02:46:51;;;;;;;4.50;2.63;;;;;;;5.82;69.89;99963.78;5031836;28;20026;-62
2022/05/03 02:49:27;;;;;;;7.00;2.20;;;;;;;5.63;70.51;99940.13;5031891;28;20296;-60
2022/05/03 02:52:40;;;;;;;4.83;2.40;;;;;;;5.73;69.78;99977.88;5034327;28;20126;-61
2022/05/03 02:55:22;;;;;;;9.23;2.73;;;;;;;5.73;69.76;99971.75;5018213;28;20049;-62
2022/05/03 02:57:53;;;;;;;5.00;2.50;;;;;;;5.71;70.44;99971.91;5035122;28;20094;-60
2022/05/03 03:03:53;;;;;;;10.20;2.33;;;;;;;5.70;69.79;99967.59;5038674;28;20279;-61
2022/05/03 03:06:24;;;;;;;4.50;2.37;;;;;;;5.22;69.37;99900.13;5037453;28;20290;-62
2022/05/03 03:08:54;;;;;;;4.90;2.37;;;;;;;5.59;68.89;99954.63;5037669;28;20379;-63
2022/05/03 03:11:23;;;;;;;7.97;2.33;;;;;;;5.56;69.93;99953.13;5036914;28;20291;-61
2022/05/03 03:14:04;;;;;;;5.30;2.60;;;;;;;5.72;68.74;99963.00;5035411;28;20265;-61
2022/05/03 03:16:44;;;;;;;6.50;3.23;;;;;;;6.79;66.45;99958.38;5035737;28;20492;-62
2022/05/03 03:19:25;;;;;;;4.60;2.50;;;;;;;8.31;60.49;99969.63;5035498;28;20074;-62
2022/05/03 03:21:55;;;;;;;5.80;3.67;;;;;;;9.47;55.91;99957.47;5035525;28;20271;-60
2022/05/03 03:24:22;;;;;;;6.53;2.60;;;;;;;10.10;53.56;99953.72;5035051;28;20029;-63
2022/05/03 03:26:51;;;;;;;6.10;3.03;;;;;;;10.57;51.76;99955.31;5035455;28;20037;-61
2022/05/03 03:29:18;;;;;;;6.50;2.47;;;;;;;10.41;50.80;99968.81;5036018;28;20145;-62
2022/05/03 03:31:47;;;;;;;3.73;2.17;;;;;;;10.31;50.78;99970.88;5036023;28;20053;-62
2022/05/03 03:34:15;;;;;;;6.53;2.77;;;;;;;10.21;51.62;99977.28;5034421;28;20057;-62
2022/05/03 03:36:44;;;;;;;8.13;2.23;;;;;;;10.16;51.34;99970.81;5033778;28;20436;-61
2022/05/03 03:39:09;;;;;;;;;;;;;;;10.68;50.81;99978.81;5035059;28;20068;-62
2022/05/03 03:41:35;;;;;;;3.43;2.40;;;;;;;10.37;50.98;99954.16;5034993;28;19968;-63
2022/05/03 03:44:03;;;;;;;5.23;2.10;;;;;;;9.92;51.90;99959.34;5034841;28;20087;-63
2022/05/03 03:46:29;;;;;;;5.28;2.22;;;;;;;10.18;50.98;99977.59;5034668;28;20033;-63
2022/05/03 03:48:54;;;;;;;6.13;2.07;;;;;;;10.71;49.89;99965.16;5034750;28;20041;-63
2022/05/03 03:51:21;;;;;;;5.30;3.23;;;;;;;10.31;48.93;99970.88;5034524;28;20037;-61
2022/05/03 03:53:47;;;;;;;4.73;2.23;;;;;;;10.29;48.38;99979.03;5034616;28;20484;-63
2022/05/03 03:56:14;;;;;;;7.00;2.07;;;;;;;10.17;47.60;99986.59;5034761;28;20091;-61
2022/05/03 03:58:39;;;;;;;3.67;2.37;;;;;;;10.08;47.04;99998.28;5034382;28;20107;-63
2022/05/03 04:01:05;;;;;;;3.80;1.83;;;;;;;10.01;48.30;99964.59;5034497;28;20083;-61
2022/05/03 04:03:33;;;;;;;6.33;2.27;;;;;;;10.23;46.82;99985.91;5034975;28;20466;-62
2022/05/03 04:05:58;;;;;;;11.53;1.83;;;;;;;10.16;46.77;99979.63;5034575;28;20377;-62
2022/05/03 04:08:25;;;;;;;3.63;2.30;;;;;;;9.58;47.43;99970.38;5034217;28;20036;-64
2022/05/03 04:10:50;;;;;;;3.67;1.80;;;;;;;8.67;50.44;99976.25;5034004;28;20044;-59
2022/05/03 04:13:16;;;;;;;4.33;1.93;;;;;;;7.61;53.42;99974.56;5033471;28;20037;-61
2022/05/03 04:15:42;;;;;;;3.10;1.57;;;;;;;7.19;55.56;99993.13;5034441;28;20041;-61
2022/05/03 04:18:08;;;;;;;5.10;1.67;;;;;;;6.88;56.80;100004.22;5034065;28;20408;-61
2022/05/03 04:20:34;;;;;;;10.77;2.73;;;;;;;6.58;58.20;99994.94;5034092;28;20047;-63
2022/05/03 04:23:00;;;;;;;3.30;2.03;;;;;;;6.61;58.95;99999.94;5034890;28;20033;-61
2022/05/03 04:25:26;;;;;;;4.53;1.90;;;;;;;6.49;59.40;99999.38;5034733;28;20038;-60
2022/05/03 04:27:51;;;;;;;8.57;1.90;;;;;;;6.33;60.71;99977.25;5034204;28;20057;-62
2022/05/03 04:30:17;;;;;;;3.67;1.70;;;;;;;6.25;61.74;99970.09;5034045;28;20560;-59
2022/05/03 04:32:44;;;;;;;5.37;1.90;;;;;;;6.25;62.30;99993.06;5033825;28;20053;-62
2022/05/03 04:35:10;;;;;;;2.87;1.53;;;;;;;6.13;61.84;99984.56;5033763;28;20065;-61
2022/05/03 04:37:36;;;;;;;5.27;2.13;;;;;;;6.17;62.37;99981.44;5033922;28;20065;-60
2022/05/03 04:40:03;;;;;;;4.53;1.63;;;;;;;6.09;61.82;99988.50;5034129;28;20037;-61
2022/05/03 04:42:30;;;;;;;4.65;2.00;;;;;;;6.05;61.62;99981.81;5032638;28;20447;-62
2022/05/03 04:44:56;;;;;;;6.23;2.47;;;;;;;6.11;60.56;99986.53;5033609;28;20091;-64
2022/05/03 04:47:21;;;;;;;6.07;2.73;;;;;;;7.64;56.79;99990.97;5033534;28;20462;-63
2022/05/03 04:49:48;;;;;;;6.97;2.50;;;;;;;9.55;50.13;99991.19;5033384;28;20092;-61
2022/05/03 04:52:13;;;;;;;4.80;2.00;;;;;;;10.77;46.66;99983.06;5033268;28;20037;-62
2022/05/03 04:54:39;;;;;;;2.80;2.10;;;;;;;11.77;43.49;99993.13;5033589;28;20040;-62
2022/05/03 04:57:06;;;;;;;5.57;2.43;;;;;;;11.96;41.60;99989.06;5033717;28;20033;-60
2022/05/03 04:59:31;;;;;;;4.93;1.83;;;;;;;11.27;42.45;99984.13;5033057;28;20034;-61
2022/05/03 05:01:57;;;;;;;1.93;1.30;;;;;;;11.21;43.10;99997.38;5033026;28;20076;-61
2022/05/03 05:04:29;;;;;;;2.03;1.30;;;;;;;9.89;44.15;100020.06;5033153;28;20129;-64
2022/05/03 05:06:54;;;;;;;3.23;1.70;;;;;;;8.54;47.39;100002.47;5033315;28;20472;-62
2022/05/03 05:09:20;;;;;;;4.90;1.20;;;;;;;7.86;48.63;100012.53;5033106;28;20042;-62
2022/05/03 05:11:48;;;;;;;5.60;1.50;;;;;;;7.51;49.42;99995.03;5033452;28;20060;-64
2022/05/03 05:14:13;;;;;;;3.27;1.40;;;;;;;7.40;49.63;100010.25;5033153;28;20092;-63
2022/05/03 05:16:39;;;;;;;7.03;1.30;;;;;;;6.95;49.83;99968.22;5032966;28;20535;-61
2022/05/03 05:19:04;;;;;;;6.43;1.03;;;;;;;7.03;48.77;99993.88;5032770;28;20456;-59
2022/05/03 05:21:30;;;;;;;4.47;0.83;;;;;;;7.07;47.72;100011.13;5032707;28;20033;-67
2022/05/03 05:23:55;;;;;;;2.17;1.20;;;;;;;7.00;49.06;99989.75;5015093;28;20042;-63
2022/05/03 05:26:21;;;;;;;4.03;1.20;;;;;;;6.77;49.79;99947.13;5032639;28;20116;-63
2022/05/03 05:28:46;;;;;;;2.33;0.90;;;;;;;7.04;49.70;99984.97;5031698;28;20045;-64
2022/05/03 05:31:13;;;;;;;3.00;1.30;;;;;;;6.90;49.89;99956.41;5032080;28;20126;-60
2022/05/03 05:33:38;;;;;;;11.33;1.93;;;;;;;6.73;49.01;99918.47;5033177;28;20044;-62
2022/05/03 05:36:04;;;;;;;6.10;1.03;;;;;;;7.14;50.00;99997.06;5032304;28;20033;-60
2022/05/03 05:38:29;;;;;;;2.80;1.00;;;;;;;7.23;47.13;100013.84;5032390;28;20255;-63
2022/05/03 05:40:55;;;;;;;2.10;0.70;;;;;;;7.16;46.83;99996.91;5031223;28;20124;-63
2022/05/03 05:43:20;;;;;;;5.50;1.00;;;;;;;7.16;48.11;99981.03;5031604;28;20041;-63
2022/05/03 05:45:46;;;;;;;6.37;1.73;;;;;;;7.23;48.36;99981.22;5031960;28;20489;-62
2022/05/03 05:48:15;;;;;;;4.60;2.03;;;;;;;7.39;47.74;99994.53;5032323;28;20095;-60
2022/05/03 05:50:41;;;;;;;13.57;1.40;;;;;;;7.32;47.23;99988.22;5032150;28;20037;-62
2022/05/03 05:55:52;;;;;;;26.50;2.07;;;;;;;7.36;45.05;100000.16;5031365;28;20044;-63
2022/05/03 05:58:17;;;;;;;13.57;2.27;;;;;;;7.41;46.13;100000.50;5032193;28;20475;-65
2022/05/03 06:00:43;;;;;;;8.60;1.80;;;;;;;7.37;47.44;100007.09;5032675;28;20041;-67
2022/05/03 06:03:08;;;;;;;12.37;1.17;;;;;;;7.32;47.17;100001.47;5014528;28;20041;-63
2022/05/03 06:05:34;;;;;;;19.53;1.90;;;;;;;7.25;48.23;99992.50;5032221;28;20038;-61
2022/05/03 06:08:00;;;;;;;6.27;1.80;;;;;;;7.19;49.13;99998.41;5032242;28;20041;-66
2022/05/03 06:10:26;;;;;;;7.20;1.70;;;;;;;7.20;49.97;100005.38;5032238;28;20463;-62
2022/05/03 06:12:53;;;;;;;11.30;2.50;;;;;;;7.27;49.16;99999.28;5030691;28;20123;-62
2022/05/03 06:15:21;;;;;;;7.57;1.60;;;;;;;7.26;49.31;99999.47;5031971;28;20120;-64
2022/05/03 06:17:46;;;;;;;5.22;1.52;;;;;;;7.32;47.83;100020.00;5031272;28;20485;-66
2022/05/03 06:20:12;;;;;;;4.53;1.20;;;;;;;7.28;46.81;100019.50;5032490;28;20127;-66
2022/05/03 06:22:41;;;;;;;5.23;1.20;;;;;;;7.35;49.68;100011.72;5032296;28;20041;-66
2022/05/03 06:25:08;;;;;;;9.93;1.10;;;;;;;7.14;50.15;99980.34;5031687;28;20038;-62
2022/05/03 06:27:38;;;;;;;4.83;1.47;;;;;;;7.15;49.44;99990.78;5031920;28;20033;-64
2022/05/03 06:30:06;;;;;;;12.13;1.80;;;;;;;7.29;49.86;100015.84;5030909;28;20056;-65
2022/05/03 06:32:32;;;;;;;6.17;1.20;;;;;;;7.23;49.32;100005.03;5031914;28;20135;-62
2022/05/03 06:34:58;;;;;;;8.97;1.77;;;;;;;7.31;50.46;100026.28;5035290;28;20083;-63
2022/05/03 06:37:24;;;;;;;8.40;1.47;;;;;;;7.19;50.94;100009.00;5051267;28;20120;-62
2022/05/03 06:39:49;;;;;;;5.53;2.03;;;;;;;7.19;50.17;100019.59;5051437;28;20037;-61
2022/05/03 06:42:16;;;;;;;12.70;1.63;;;;;;;7.22;51.68;100029.88;5051358;28;20087;-61
2022/05/03 06:44:42;;;;;;;21.60;2.97;;;;;;;7.21;51.07;100038.81;5051576;28;20488;-62
2022/05/03 06:47:08;;;;;;;18.33;1.90;;;;;;;7.08;50.58;100041.91;5051564;28;20052;-62
2022/05/03 06:49:34;;;;;;;9.07;1.27;;;;;;;6.88;50.60;100024.56;5051747;28;20060;-64
2022/05/03 06:52:00;;;;;;;8.57;1.47;;;;;;;6.86;51.91;100014.13;5052228;28;20511;-65
2022/05/03 06:54:25;;;;;;;10.70;2.70;;;;;;;7.10;52.55;100029.34;5050986;28;20033;-64
2022/05/03 06:56:51;;;;;;;11.67;1.30;;;;;;;7.17;51.21;100034.81;5050940;28;20123;-71
2022/05/03 06:59:17;;;;;;;4.03;1.17;;;;;;;7.03;50.85;100021.19;5051239;28;20094;-65
2022/05/03 07:01:42;;;;;;;4.40;1.20;;;;;;;6.99;50.63;100019.84;5051431;28;20127;-62
2022/05/03 07:04:08;;;;;;;14.67;3.17;;;;;;;7.04;51.46;100036.09;5051445;28;20479;-66
2022/05/03 07:06:33;;;;;;;28.37;3.30;;;;;;;6.99;51.38;100056.91;5050112;28;20551;-63
2022/05/03 07:08:59;;;;;;;20.30;4.03;;;;;;;6.93;51.60;100041.63;5049267;28;20033;-64
2022/05/03 07:11:25;;;;;;;10.43;1.77;;;;;;;7.03;53.01;100038.91;5051274;28;20060;-67
2022/05/03 07:13:50;;;;;;;8.67;1.67;;;;;;;6.95;53.03;100018.50;5051745;28;20040;-69
2022/05/03 07:16:16;;;;;;;10.67;1.77;;;;;;;7.12;52.49;100040.59;5051315;28;20033;-69
2022/05/03 07:24:10;;;;;;;8.13;1.37;;;;;;;7.18;51.46;100036.47;5051392;28;20037;-62
2022/05/03 07:26:37;;;;;;;8.93;1.37;;;;;;;6.47;51.06;99907.94;5051452;28;20037;-65
2022/05/03 07:29:03;;;;;;;13.33;1.77;;;;;;;7.26;49.25;100031.25;5051151;28;20047;-61
2022/05/03 07:31:31;;;;;;;10.43;1.40;;;;;;;7.01;49.32;100040.88;5051263;28;20052;-62
2022/05/03 07:33:57;;;;;;;22.10;3.33;;;;;;;7.15;49.05;100066.75;5051190;28;20041;-61
2022/05/03 07:36:22;;;;;;;31.27;4.07;;;;;;;7.03;50.21;100091.84;5050836;28;20145;-62
2022/05/03 07:38:48;;;;;;;9.83;2.10;;;;;;;6.05;50.09;99913.91;5051241;28;20037;-62
2022/05/03 07:41:14;;;;;;;9.07;1.53;;;;;;;6.19;49.97;99954.84;5051158;28;20124;-68
2022/05/03 07:43:41;;;;;;;28.30;2.30;;;;;;;6.94;49.29;100087.47;5051244;28;20043;-62
2022/05/03 07:46:07;;;;;;;9.53;1.23;;;;;;;6.78;50.77;100057.28;5051582;28;20190;-63
2022/05/03 07:48:33;;;;;;;6.77;1.67;;;;;;;6.84;49.69;100091.06;5052890;28;20072;-60
2022/05/03 07:50:59;;;;;;;14.87;1.90;;;;;;;6.83;51.17;100091.22;5053405;28;20029;-63
2022/05/03 07:53:24;;;;;;;16.77;1.90;;;;;;;6.77;50.47;100076.78;5055079;28;20082;-61
2022/05/03 07:55:50;;;;;;;9.13;1.70;;;;;;;6.81;51.56;100085.25;5055099;28;20127;-62
2022/05/03 07:58:18;;;;;;;7.23;1.90;;;;;;;6.92;48.69;100098.22;5054674;28;20032;-63
2022/05/03 08:00:44;;;;;;;7.03;1.90;;;;;;;6.95;50.20;100076.75;5054372;28;20543;-61
2022/05/03 08:03:09;;;;;;;8.07;2.33;;;;;;;7.13;49.64;100098.69;5054318;28;20172;-61
2022/05/03 08:05:35;;;;;;;7.37;1.87;;;;;;;7.18;49.08;100082.31;5054486;28;20123;-60
2022/05/03 08:08:02;;;;;;;10.03;2.33;;;;;;;7.26;49.17;100116.00;5054594;28;20040;-64
2022/05/03 08:10:27;;;;;;;9.87;2.27;;;;;;;7.17;49.43;100120.38;5054913;28;20040;-61
2022/05/03 08:12:53;;;;;;;9.27;1.70;;;;;;;7.00;50.13;100116.81;5055351;28;20147;-60
2022/05/03 08:15:19;;;;;;;6.50;1.90;;;;;;;6.80;48.80;100095.00;5055041;28;20032;-61
2022/05/03 08:17:45;;;;;;;14.30;3.10;;;;;;;6.90;49.52;100108.13;5054046;28;20408;-61
2022/05/03 08:20:13;;;;;;;3.50;1.10;;;;;;;6.92;49.38;100113.25;5053717;28;20033;-61
2022/05/03 08:22:39;;;;;;;8.47;1.97;;;;;;;7.06;50.38;100139.19;5052984;28;20167;-62
2022/05/03 08:25:05;;;;;;;7.40;1.40;;;;;;;7.02;48.80;100141.31;5054016;28;20040;-59
2022/05/03 08:27:31;;;;;;;8.40;1.63;;;;;;;6.93;49.15;100136.94;5054235;28;20121;-63
2022/05/03 08:29:56;;;;;;;9.13;1.53;;;;;;;6.95;49.75;100140.28;5053792;28;20099;-63
2022/05/03 08:32:23;;;;;;;3.30;1.77;;;;;;;7.00;50.34;100143.28;5052356;28;20103;-59
2022/05/03 08:34:48;;;;;;;11.30;1.30;;;;;;;6.90;50.37;100134.59;5052576;28;20041;-62
2022/05/03 08:42:42;;;;;;;9.97;1.70;;;;;;;7.19;49.29;100141.41;5051194;28;20025;-62
2022/05/03 08:45:09;;;;;;;8.83;2.60;;;;;;;7.24;49.33;100141.81;5053154;28;20346;-59
2022/05/03 08:47:36;;;;;;;9.63;2.03;;;;;;;7.27;50.23;100144.13;5053624;28;20106;-57
2022/05/03 08:50:21;;;;;;;6.47;1.27;;;;;;;7.44;49.72;100162.59;5053333;28;20064;-65
2022/05/03 08:53:15;;;;;;;10.33;2.07;;;;;;;7.49;50.50;100154.19;5052208;28;20502;-64
2022/05/03 08:55:44;;;;;;;14.63;1.70;;;;;;;7.56;49.99;100171.13;5052115;28;20102;-64
2022/05/03 08:58:17;;;;;;;6.25;1.70;;;;;;;7.60;50.02;100156.56;5053222;28;20037;-64
2022/05/03 09:00:42;;;;;;;12.03;1.67;;;;;;;7.61;48.20;100168.84;5043661;28;20535;-60
2022/05/03 09:03:08;;;;;;;10.00;2.20;;;;;;;7.53;48.60;100155.56;5053052;28;20064;-56
2022/05/03 09:05:33;;;;;;;10.27;1.93;;;;;;;7.62;47.43;100156.41;5053053;28;20033;-58
2022/05/03 09:08:00;;;;;;;9.70;1.70;;;;;;;7.67;46.74;100178.78;5052515;28;20049;-66
2022/05/03 09:10:37;;;;;;;11.23;1.70;;;;;;;7.50;48.24;100166.44;5053059;28;20057;-60
2022/05/03 09:13:24;;;;;;;9.30;2.17;;;;;;;7.53;48.92;100182.03;5053156;28;20036;-61
2022/05/03 09:15:52;;;;;;;19.47;2.63;;;;;;;7.54;48.71;100156.38;5052261;28;20477;-62
2022/05/03 09:18:26;;;;;;;13.75;2.10;;;;;;;7.36;48.86;100185.56;5050086;28;20036;-62
2022/05/03 09:23:48;;;;;;;12.00;2.00;;;;;;;7.47;47.35;100182.66;5045594;28;20163;-65
2022/05/03 09:26:21;;;;;;;13.70;2.07;;;;;;;7.61;48.66;100203.28;5053212;28;20739;-62
2022/05/03 09:28:54;;;;;;;11.80;1.70;;;;;;;7.52;48.30;100204.22;5056609;28;20446;-63
2022/05/03 09:31:35;;;;;;;7.83;2.33;;;;;;;7.56;48.39;100194.97;5057215;28;20057;-70
2022/05/03 09:34:27;;;;;;;20.57;3.83;;;;;;;6.73;48.19;100067.50;5052041;28;20048;-71
2022/05/03 09:37:05;;;;;;;7.37;1.87;;;;;;;7.55;47.63;100217.16;5056063;28;21668;-69
2022/05/03 09:39:46;;;;;;;8.52;2.05;;;;;;;7.52;48.31;100213.97;5050060;28;20053;-64
2022/05/03 09:42:19;;;;;;;12.47;1.50;;;;;;;7.32;49.42;100205.41;5050432;28;20033;-63
2022/05/03 09:45:02;;;;;;;12.03;1.97;;;;;;;7.45;50.59;100232.31;5052849;28;20029;-63
2022/05/03 09:47:33;;;;;;;18.37;1.73;;;;;;;7.38;49.78;100200.31;5051235;28;20643;-65
2022/05/03 09:49:59;;;;;;;8.23;2.03;;;;;;;7.31;50.50;100214.34;5050432;28;20067;-64
2022/05/03 09:52:36;;;;;;;13.10;1.97;;;;;;;7.44;50.08;100222.72;5063702;28;20040;-73
2022/05/03 09:55:04;;;;;;;4.60;1.40;;;;;;;7.56;49.78;100228.59;5062337;28;20029;-72
2022/05/03 09:57:32;;;;;;;9.18;1.60;;;;;;;7.50;48.74;100229.19;5058734;28;20083;-76
2022/05/03 09:59:58;;;;;;;21.63;2.53;;;;;;;7.57;48.54;100241.69;5051612;28;20037;-75
2022/05/03 10:02:25;;;;;;;12.93;2.03;;;;;;;7.47;48.83;100238.28;5051479;28;20033;-75
2022/05/03 10:04:53;;;;;;;14.97;3.17;;;;;;;7.50;50.26;100245.94;5052138;28;20097;-68
2022/05/03 10:07:20;;;;;;;11.63;1.70;;;;;;;7.29;50.85;100227.75;5051322;28;20040;-66
2022/05/03 10:09:46;;;;;;;4.43;1.93;;;;;;;7.40;50.28;100255.78;5033579;28;20040;-63
2022/05/03 10:12:13;;;;;;;9.37;1.47;;;;;;;7.48;49.66;100266.44;5051822;28;20041;-65
2022/05/03 10:14:43;;;;;;;6.13;1.20;;;;;;;7.49;50.13;100260.16;5051917;28;20033;-64
2022/05/03 10:20:46;;;;;;;18.92;3.42;;;;;;;7.74;50.33;100258.50;5048935;28;20028;-65
2022/05/03 10:23:23;;;;;;;14.53;2.10;;;;;;;7.55;50.02;100211.88;5050158;28;20036;-76
2022/05/03 10:26:00;;;;;;;12.30;2.20;;;;;;;7.88;50.27;100262.41;5050584;28;20110;-71
2022/05/03 10:28:46;;;;;;;9.10;1.23;;;;;;;7.57;50.11;100256.75;5052013;28;20033;-70
2022/05/03 10:31:13;;;;;;;26.07;3.50;;;;;;;7.29;50.39;100279.91;5051236;28;20109;-68
2022/05/03 10:33:42;;;;;;;;;;;;;;;7.43;51.21;100266.09;5052008;28;20052;-58
2022/05/03 10:36:40;;;;;;;20.93;3.87;;;;;;;7.31;48.67;100297.28;5052226;28;19927;-62
2022/05/03 10:39:23;;;;;;;56.33;6.93;;;;;;;7.32;48.42;100275.13;5050318;28;20515;-70
2022/05/03 10:42:12;;;;;;;13.33;1.63;;;;;;;7.39;48.72;100272.69;5051582;28;20075;-68
2022/05/03 10:44:49;;;;;;;32.73;2.73;;;;;;;7.34;48.14;100304.09;5052030;28;20141;-64
2022/05/03 10:47:38;;;;;;;32.60;3.20;;;;;;;7.01;48.94;100285.28;5052171;28;20119;-64
2022/05/03 10:50:13;;;;;;;11.20;1.67;;;;;;;7.14;49.09;100291.00;5049830;28;20041;-68
2022/05/03 10:52:58;;;;;;;12.23;1.97;;;;;;;7.23;49.86;100302.53;5050305;28;20127;-66
2022/05/03 10:55:27;;;;;;;28.37;3.90;;;;;;;7.28;48.83;100302.91;5047670;28;20048;-64
2022/05/03 10:58:24;;;;;;;20.95;2.70;;;;;;;7.36;48.34;100302.97;5051712;28;20032;-73
2022/05/03 11:01:24;;;;;;;11.57;1.53;;;;;;;7.42;50.14;100296.22;5052112;28;20063;-70
2022/05/03 11:03:51;;;;;;;5.70;1.30;;;;;;;7.66;49.37;100300.88;5051790;28;20061;-69
2022/05/03 11:06:19;;;;;;;21.57;4.17;;;;;;;7.56;48.77;100324.81;5051535;28;20067;-63
2022/05/03 11:11:35;;;;;;;14.20;2.63;;;;;;;7.66;47.44;100293.75;5051223;28;20486;-66
2022/05/03 11:14:02;;;;;;;30.37;5.03;;;;;;;7.63;47.08;100309.13;5051413;28;20045;-65
2022/05/03 11:16:34;;;;;;;25.30;3.50;;;;;;;7.57;47.47;100301.81;5051552;28;20385;-66
2022/05/03 11:19:28;;;;;;;29.70;3.57;;;;;;;7.44;47.46;100273.88;5050132;28;20071;-65
2022/05/03 11:21:53;;;;;;;30.47;3.77;;;;;;;7.47;47.58;100304.53;5051670;28;20055;-63
2022/05/03 11:24:21;;;;;;;43.30;3.77;;;;;;;7.56;47.30;100322.19;5055689;28;20037;-66
2022/05/03 11:26:48;;;;;;;13.67;2.07;;;;;;;7.58;47.89;100304.31;5055111;28;20094;-65
2022/05/03 11:29:14;;;;;;;12.07;1.90;;;;;;;7.56;47.92;100297.50;5051081;28;20135;-61
2022/05/03 11:31:48;;;;;;;10.73;1.37;;;;;;;7.73;48.60;100329.25;5054912;28;20103;-66
2022/05/03 11:34:14;;;;;;;9.23;2.10;;;;;;;7.30;48.51;100255.06;5039501;28;20073;-63
2022/05/03 11:36:44;;;;;;;5.43;1.87;;;;;;;7.74;48.69;100301.75;5035080;28;20108;-71
2022/05/03 11:39:10;;;;;;;8.93;1.53;;;;;;;7.88;48.06;100304.84;5043954;28;20120;-71
2022/05/03 11:41:37;;;;;;;18.80;2.77;;;;;;;7.75;48.00;100316.66;5054929;28;20037;-67
2022/05/03 11:44:03;;;;;;;16.63;2.33;;;;;;;7.50;48.08;100283.03;5055574;28;20045;-72
2022/05/03 11:46:29;;;;;;;12.30;2.93;;;;;;;7.71;48.83;100317.13;5055608;28;20032;-63
2022/05/03 11:49:00;;;;;;;16.77;3.00;;;;;;;7.84;49.81;100328.19;5054494;28;20037;-64
2022/05/03 11:57:08;;;;;;;6.57;2.23;;;;;;;8.41;46.97;100354.25;5054491;28;20036;-63
2022/05/03 11:59:34;;;;;;;14.13;2.77;;;;;;;8.69;46.45;100334.44;5055062;28;20211;-63
2022/05/03 12:02:22;;;;;;;16.77;2.03;;;;;;;9.23;44.23;100343.69;5055018;28;20456;-62
2022/05/03 12:05:02;;;;;;;10.70;2.85;;;;;;;9.65;43.05;100363.16;5054851;28;20037;-62
2022/05/03 12:07:30;;;;;;;13.57;1.83;;;;;;;9.72;41.33;100358.84;5054381;28;20090;-61
2022/05/03 12:09:56;;;;;;;10.00;1.73;;;;;;;9.43;42.12;100338.91;5054107;28;20043;-62
2022/05/03 12:12:44;;;;;;;9.67;2.10;;;;;;;8.91;43.75;100303.78;5054299;28;20062;-61
2022/05/03 12:15:16;;;;;;;8.57;1.70;;;;;;;9.13;44.05;100355.47;5054285;28;20118;-67
2022/05/03 12:18:02;;;;;;;6.20;1.60;;;;;;;8.96;43.64;100358.09;5053955;28;20381;-65
2022/05/03 12:20:48;;;;;;;6.87;2.00;;;;;;;8.86;44.59;100372.50;5054618;28;20036;-62
2022/05/03 12:23:20;;;;;;;6.73;1.73;;;;;;;8.31;45.29;100370.22;5033037;28;20103;-62
2022/05/03 12:25:51;;;;;;;18.33;3.57;;;;;;;8.07;44.48;100369.06;5053667;28;20404;-63
2022/05/03 12:28:18;;;;;;;12.67;2.07;;;;;;;8.16;46.40;100364.69;5054185;28;20037;-64
2022/05/03 12:30:47;;;;;;;8.37;2.00;;;;;;;8.48;47.28;100377.31;5053670;28;20082;-62